Terminal Aerodrome Forecast
Issued by NWS

Home | Current Version | Previous Version | Text Only | Print | Product List | Glossary On
Versions: 1 2 3 4 5 6 7 8 9 10 11 12 13
000
FTUS41 KILN 261120
TAFLCK
TAF
KLCK 261120Z 2612/2712 14006KT P6SM FEW250
     FM261500 17010KT P6SM FEW250
     FM261800 18012G20KT P6SM FEW250
     FM270000 16009KT P6SM FEW250
     FM270500 16009KT P6SM FEW250 WS020/18040KT=

USA.gov is the U.S. government's official web portal to all federal, state and local government web resources and services.